Time;durP1;ratioP1;P1;durP2;ratioP2;P2;SDS_P1;SDS_P2;PMS_P1;PMS_P2;Temp;Humidity;BMP_temperature;BMP_pressure;BME280_temperature;BME280_humidity;BME280_pressure;Samples;Min_cycle;Max_cycle;Signal;HPM_P1;HPM_P2
2024/04/10 00:01:04;;;;;;;12.00;7.00;;;;;;;;;;5308145;27;19990;-57
2024/04/10 00:03:31;;;;;;;14.77;8.55;;;;;;;;;;5307851;27;20622;-59
2024/04/10 00:05:57;;;;;;;11.80;6.90;;;;;;;;;;5307796;27;20005;-59
2024/04/10 00:08:23;;;;;;;12.77;7.45;;;;;;;;;;5277306;27;19998;-59
2024/04/10 00:10:49;;;;;;;11.93;6.95;;;;;;;;;;5308412;27;19997;-60
2024/04/10 00:13:15;;;;;;;12.20;7.10;;;;;;;;;;5308187;27;20336;-58
2024/04/10 00:15:41;;;;;;;12.43;7.22;;;;;;;;;;5278048;27;19993;-57
2024/04/10 00:18:07;;;;;;;13.15;8.77;;;;;;;;;;5308238;27;19998;-59
2024/04/10 00:20:33;;;;;;;12.75;7.40;;;;;;;;;;5308524;27;20013;-60
2024/04/10 00:22:59;;;;;;;12.65;7.35;;;;;;;;;;5307597;27;20008;-60
2024/04/10 00:25:25;;;;;;;15.80;8.15;;;;;;;;;;5308793;27;19993;-60
2024/04/10 00:27:51;;;;;;;12.77;7.53;;;;;;;;;;5278584;27;20071;-60
2024/04/10 00:30:17;;;;;;;13.73;7.70;;;;;;;;;;5308544;27;19993;-58
2024/04/10 00:32:47;;;;;;;18.08;12.32;;;;;;;;;;5308832;27;19989;-58
2024/04/10 00:35:13;;;;;;;13.40;8.23;;;;;;;;;;5308174;27;20467;-57
2024/04/10 00:37:39;;;;;;;12.95;7.53;;;;;;;;;;5277864;27;19990;-58
2024/04/10 00:40:08;;;;;;;12.70;7.40;;;;;;;;;;5307599;27;19998;-59
2024/04/10 00:42:33;;;;;;;14.90;8.07;;;;;;;;;;5308019;27;19998;-58
2024/04/10 00:44:59;;;;;;;12.90;7.50;;;;;;;;;;5307360;27;19997;-58
2024/04/10 00:47:25;;;;;;;13.10;7.60;;;;;;;;;;5307644;27;19993;-60
2024/04/10 00:49:52;;;;;;;12.80;7.60;;;;;;;;;;5307653;27;20009;-60
2024/04/10 00:52:18;;;;;;;12.48;7.30;;;;;;;;;;5307132;27;19998;-59
2024/04/10 00:54:45;;;;;;;15.25;8.10;;;;;;;;;;5307443;27;19993;-60
2024/04/10 00:57:12;;;;;;;12.52;7.30;;;;;;;;;;5307421;27;19993;-60
2024/04/10 00:59:38;;;;;;;12.32;7.20;;;;;;;;;;5308070;27;20006;-60
2024/04/10 01:02:05;;;;;;;13.55;8.13;;;;;;;;;;5308033;27;20045;-61
2024/04/10 01:04:31;;;;;;;17.73;9.45;;;;;;;;;;5307374;27;20038;-59
2024/04/10 01:06:57;;;;;;;12.88;7.45;;;;;;;;;;5307002;27;20081;-58
2024/04/10 01:09:23;;;;;;;12.90;7.78;;;;;;;;;;5307460;27;20688;-57
2024/04/10 01:11:49;;;;;;;12.88;7.45;;;;;;;;;;5307224;27;19998;-58
2024/04/10 01:14:16;;;;;;;17.38;8.35;;;;;;;;;;5307495;27;20008;-58
2024/04/10 01:16:42;;;;;;;12.60;7.40;;;;;;;;;;5277479;27;20041;-58
2024/04/10 01:19:08;;;;;;;12.55;7.30;;;;;;;;;;5307570;27;20065;-57
2024/04/10 01:21:34;;;;;;;13.13;7.85;;;;;;;;;;5307267;27;20008;-61
2024/04/10 01:24:00;;;;;;;13.73;8.43;;;;;;;;;;5307138;27;20082;-60
2024/04/10 01:26:26;;;;;;;13.20;8.00;;;;;;;;;;5306813;27;20484;-55
2024/04/10 01:28:52;;;;;;;12.20;7.18;;;;;;;;;;5306938;27;20053;-60
2024/04/10 01:31:18;;;;;;;12.60;7.60;;;;;;;;;;5307272;27;20001;-60
2024/04/10 01:33:44;;;;;;;12.48;7.30;;;;;;;;;;5276558;27;20001;-56
2024/04/10 01:36:10;;;;;;;14.10;8.23;;;;;;;;;;5306685;27;20008;-55
2024/04/10 01:38:39;;;;;;;13.65;7.93;;;;;;;;;;5307089;27;20383;-54
2024/04/10 01:41:05;;;;;;;12.57;7.28;;;;;;;;;;5307272;27;20065;-58
2024/04/10 01:43:31;;;;;;;14.85;7.75;;;;;;;;;;5306783;27;19997;-61
2024/04/10 01:45:57;;;;;;;12.80;7.40;;;;;;;;;;5306614;27;19998;-60
2024/04/10 01:48:23;;;;;;;13.18;7.78;;;;;;;;;;5307156;27;20001;-60
2024/04/10 01:50:49;;;;;;;12.98;7.60;;;;;;;;;;5306967;27;19998;-58
2024/04/10 01:53:15;;;;;;;13.02;7.60;;;;;;;;;;5306676;27;20000;-60
2024/04/10 01:55:41;;;;;;;13.25;7.70;;;;;;;;;;5307002;27;19997;-57
2024/04/10 01:58:07;;;;;;;13.38;8.10;;;;;;;;;;5308547;27;20313;-60
2024/04/10 02:00:35;;;;;;;13.30;8.00;;;;;;;;;;5310413;27;20008;-58
2024/04/10 02:03:01;;;;;;;13.45;7.78;;;;;;;;;;5279223;27;19994;-60
2024/04/10 02:05:27;;;;;;;12.88;7.60;;;;;;;;;;5309777;27;20444;-60
2024/04/10 02:07:53;;;;;;;13.50;8.38;;;;;;;;;;5309865;27;19998;-57
2024/04/10 02:10:21;;;;;;;13.20;7.90;;;;;;;;;;5279355;27;20008;-59
2024/04/10 02:12:47;;;;;;;12.97;7.67;;;;;;;;;;5309803;27;20484;-59
2024/04/10 02:15:13;;;;;;;13.20;8.02;;;;;;;;;;5309162;27;20012;-56
2024/04/10 02:17:39;;;;;;;13.40;7.90;;;;;;;;;;5309597;27;20410;-56
2024/04/10 02:20:07;;;;;;;15.05;7.95;;;;;;;;;;5309331;27;20052;-61
2024/04/10 02:22:33;;;;;;;13.57;8.15;;;;;;;;;;5309504;27;20385;-57
2024/04/10 02:24:59;;;;;;;13.10;7.60;;;;;;;;;;5309424;27;20009;-58
2024/04/10 02:27:25;;;;;;;12.20;7.10;;;;;;;;;;5309417;27;20111;-57
2024/04/10 02:29:51;;;;;;;13.93;8.65;;;;;;;;;;5309675;27;20002;-60
2024/04/10 02:32:17;;;;;;;13.05;7.60;;;;;;;;;;5309185;27;20005;-55
2024/04/10 02:34:44;;;;;;;12.93;7.53;;;;;;;;;;5309412;27;20042;-56
2024/04/10 02:37:10;;;;;;;13.00;7.70;;;;;;;;;;5278856;27;20004;-58
2024/04/10 02:39:37;;;;;;;13.15;7.65;;;;;;;;;;5279266;27;20690;-55
2024/04/10 02:42:04;;;;;;;13.27;7.95;;;;;;;;;;5308858;27;20461;-58
2024/04/10 02:44:30;;;;;;;13.95;8.63;;;;;;;;;;5309136;27;20001;-55
2024/04/10 02:46:56;;;;;;;13.85;7.85;;;;;;;;;;5308912;27;19990;-53
2024/04/10 02:49:22;;;;;;;12.98;7.65;;;;;;;;;;5309229;27;19998;-57
2024/04/10 02:51:48;;;;;;;12.98;7.60;;;;;;;;;;5309320;27;20348;-60
2024/04/10 02:54:14;;;;;;;28.88;9.15;;;;;;;;;;5308976;27;20012;-60
2024/04/10 02:56:40;;;;;;;13.60;8.00;;;;;;;;;;5278171;27;20052;-59
2024/04/10 02:59:07;;;;;;;15.45;8.70;;;;;;;;;;5309058;27;20467;-59
2024/04/10 03:01:34;;;;;;;13.05;7.68;;;;;;;;;;5308942;27;20456;-56
2024/04/10 03:04:00;;;;;;;13.15;7.70;;;;;;;;;;5308432;27;19998;-59
2024/04/10 03:06:27;;;;;;;13.20;7.88;;;;;;;;;;5308809;27;20044;-57
2024/04/10 03:08:53;;;;;;;17.33;9.63;;;;;;;;;;5308319;27;20016;-62
2024/04/10 03:11:19;;;;;;;12.70;7.70;;;;;;;;;;5309576;27;20339;-60
2024/04/10 03:13:45;;;;;;;12.90;7.50;;;;;;;;;;5308914;27;19990;-60
2024/04/10 03:16:11;;;;;;;12.77;7.35;;;;;;;;;;5308783;27;20329;-61
2024/04/10 03:18:37;;;;;;;13.13;7.80;;;;;;;;;;5308682;27;19997;-55
2024/04/10 03:21:03;;;;;;;12.65;7.30;;;;;;;;;;5309050;27;20025;-59
2024/04/10 03:23:30;;;;;;;13.00;7.60;;;;;;;;;;5308562;27;20082;-60
2024/04/10 03:26:02;;;;;;;12.60;7.70;;;;;;;;;;5308339;27;20329;-59
2024/04/10 03:28:28;;;;;;;12.77;7.55;;;;;;;;;;5308880;27;20004;-58
2024/04/10 03:30:54;;;;;;;12.98;7.60;;;;;;;;;;5308881;27;19998;-58
2024/04/10 03:33:22;;;;;;;12.80;7.75;;;;;;;;;;5308507;27;20454;-57
2024/04/10 03:35:48;;;;;;;12.80;7.50;;;;;;;;;;5308439;27;20008;-58
2024/04/10 03:38:14;;;;;;;12.85;7.82;;;;;;;;;;5308844;27;20329;-58
2024/04/10 03:40:41;;;;;;;12.75;7.40;;;;;;;;;;5308937;27;20018;-59
2024/04/10 03:43:08;;;;;;;12.80;7.40;;;;;;;;;;5309250;27;20032;-58
2024/04/10 03:45:36;;;;;;;12.43;7.47;;;;;;;;;;5313934;27;20005;-56
2024/04/10 03:48:02;;;;;;;12.23;7.07;;;;;;;;;;5307618;27;19998;-57
2024/04/10 03:50:28;;;;;;;11.82;6.90;;;;;;;;;;5308623;27;20004;-60
2024/04/10 03:52:54;;;;;;;23.08;8.95;;;;;;;;;;5308432;27;20412;-58
2024/04/10 03:55:20;;;;;;;19.15;8.18;;;;;;;;;;5308529;27;20070;-56
2024/04/10 03:57:46;;;;;;;11.93;6.93;;;;;;;;;;5308556;27;20032;-58
2024/04/10 04:00:12;;;;;;;12.43;7.20;;;;;;;;;;5308258;27;20004;-58
2024/04/10 04:02:38;;;;;;;14.23;8.20;;;;;;;;;;5308554;27;20044;-58
2024/04/10 04:05:05;;;;;;;12.50;7.22;;;;;;;;;;5308554;27;19993;-62
2024/04/10 04:07:31;;;;;;;14.75;7.93;;;;;;;;;;5308517;27;19997;-58
2024/04/10 04:09:57;;;;;;;15.68;8.20;;;;;;;;;;5307718;27;20006;-58
2024/04/10 04:12:23;;;;;;;16.55;7.90;;;;;;;;;;5308195;27;20098;-58
2024/04/10 04:14:49;;;;;;;13.43;8.10;;;;;;;;;;5307998;27;20348;-59
2024/04/10 04:17:15;;;;;;;13.02;7.65;;;;;;;;;;5307938;27;20008;-58
2024/04/10 04:19:41;;;;;;;12.95;7.60;;;;;;;;;;5307170;27;20481;-57
2024/04/10 04:22:07;;;;;;;12.85;7.60;;;;;;;;;;5308142;27;19993;-59
2024/04/10 04:24:33;;;;;;;13.15;7.90;;;;;;;;;;5307632;27;19998;-61
2024/04/10 04:26:59;;;;;;;32.15;8.45;;;;;;;;;;5307580;27;19993;-60
2024/04/10 04:29:24;;;;;;;13.20;8.13;;;;;;;;;;5307291;27;20006;-61
2024/04/10 04:31:50;;;;;;;13.07;7.80;;;;;;;;;;5273894;27;20079;-58
2024/04/10 04:34:17;;;;;;;12.73;7.40;;;;;;;;;;5307542;27;20345;-57
2024/04/10 04:36:43;;;;;;;12.70;7.50;;;;;;;;;;5307274;27;20041;-59
2024/04/10 04:39:13;;;;;;;15.27;8.68;;;;;;;;;;5307384;27;20075;-60
2024/04/10 04:41:39;;;;;;;12.50;7.30;;;;;;;;;;5277159;27;20005;-59
2024/04/10 04:44:05;;;;;;;12.52;7.30;;;;;;;;;;5307316;27;20020;-59
2024/04/10 04:46:31;;;;;;;13.77;9.70;;;;;;;;;;5307501;27;19994;-57
2024/04/10 04:48:57;;;;;;;14.55;8.07;;;;;;;;;;5307304;27;20429;-57
2024/04/10 04:51:23;;;;;;;14.05;8.93;;;;;;;;;;5307072;27;20444;-54
2024/04/10 04:53:49;;;;;;;12.88;7.40;;;;;;;;;;5306898;27;19997;-59
2024/04/10 04:56:15;;;;;;;12.30;7.18;;;;;;;;;;5307007;27;19994;-60
2024/04/10 04:58:41;;;;;;;13.73;7.63;;;;;;;;;;5307169;27;20008;-56
2024/04/10 05:01:07;;;;;;;12.32;7.20;;;;;;;;;;5307659;27;20054;-60
2024/04/10 05:06:18;;;;;;;12.60;7.30;;;;;;;;;;5306894;27;20673;-62
2024/04/10 05:08:44;;;;;;;12.60;7.30;;;;;;;;;;5306696;27;19997;-62
2024/04/10 05:11:10;;;;;;;13.45;7.55;;;;;;;;;;5306912;27;20478;-60
2024/04/10 05:13:36;;;;;;;12.32;7.15;;;;;;;;;;5306290;27;19997;-57
2024/04/10 05:16:03;;;;;;;12.70;7.50;;;;;;;;;;5306535;27;20017;-61
2024/04/10 05:18:29;;;;;;;11.35;6.65;;;;;;;;;;5306924;27;20001;-61
2024/04/10 05:20:55;;;;;;;11.63;6.80;;;;;;;;;;5306666;27;20534;-61
2024/04/10 05:23:20;;;;;;;11.50;6.72;;;;;;;;;;5306447;27;20009;-56
2024/04/10 05:25:49;;;;;;;14.93;8.18;;;;;;;;;;5306340;27;20558;-58
2024/04/10 05:28:15;;;;;;;11.93;6.93;;;;;;;;;;5306842;27;20049;-58
2024/04/10 05:30:41;;;;;;;12.50;7.68;;;;;;;;;;5307593;27;19998;-57
2024/04/10 05:33:07;;;;;;;12.30;7.15;;;;;;;;;;5300982;27;20011;-57
2024/04/10 05:35:33;;;;;;;12.00;7.15;;;;;;;;;;5269679;27;20444;-59
2024/04/10 05:37:59;;;;;;;11.55;6.72;;;;;;;;;;5272173;27;20006;-57
2024/04/10 05:40:25;;;;;;;12.80;7.55;;;;;;;;;;5272301;27;20361;-57
2024/04/10 05:42:52;;;;;;;11.90;6.90;;;;;;;;;;5273589;27;20009;-57
2024/04/10 05:45:18;;;;;;;12.10;7.03;;;;;;;;;;5272858;27;20425;-61
2024/04/10 05:47:50;;;;;;;12.45;7.40;;;;;;;;;;5272312;27;20465;-62
2024/04/10 05:50:17;;;;;;;12.45;7.28;;;;;;;;;;5274513;27;20006;-61
2024/04/10 05:52:43;;;;;;;12.23;7.13;;;;;;;;;;5275465;27;20426;-60
2024/04/10 05:55:09;;;;;;;13.07;7.97;;;;;;;;;;5275457;27;20010;-58
2024/04/10 05:57:36;;;;;;;12.70;7.82;;;;;;;;;;5373296;21;20004;-53
2024/04/10 06:00:03;;;;;;;12.95;8.00;;;;;;;;;;5377883;26;20065;-53
2024/04/10 06:02:30;;;;;;;11.32;6.60;;;;;;;;;;5377231;26;20069;-50
2024/04/10 06:04:57;;;;;;;11.85;6.90;;;;;;;;;;5376703;26;20507;-54
2024/04/10 06:07:23;;;;;;;25.13;9.20;;;;;;;;;;5377142;26;19993;-53
2024/04/10 06:09:53;;;;;;;13.43;8.40;;;;;;;;;;5376614;26;20326;-54
2024/04/10 06:12:18;;;;;;;12.27;7.20;;;;;;;;;;5374860;26;19997;-53
2024/04/10 06:14:45;;;;;;;11.98;7.00;;;;;;;;;;5374707;26;20000;-53
2024/04/10 06:17:11;;;;;;;11.77;6.90;;;;;;;;;;5376502;26;20314;-54
2024/04/10 06:19:37;;;;;;;12.18;7.10;;;;;;;;;;5375211;26;20008;-52
2024/04/10 06:22:03;;;;;;;11.93;7.05;;;;;;;;;;5374433;26;20392;-48
2024/04/10 06:24:29;;;;;;;11.88;6.93;;;;;;;;;;5376438;26;20000;-52
2024/04/10 06:26:55;;;;;;;11.82;6.95;;;;;;;;;;5376786;26;20000;-51
2024/04/10 06:29:21;;;;;;;11.77;6.88;;;;;;;;;;5377091;26;20011;-52
2024/04/10 06:31:47;;;;;;;12.63;7.30;;;;;;;;;;5376851;26;20458;-51
2024/04/10 06:34:13;;;;;;;12.27;7.20;;;;;;;;;;5377368;26;20463;-51
2024/04/10 06:36:39;;;;;;;12.95;7.72;;;;;;;;;;5376916;26;20065;-55
2024/04/10 06:39:07;;;;;;;13.05;7.65;;;;;;;;;;5376643;26;20454;-53
2024/04/10 06:41:33;;;;;;;13.38;8.05;;;;;;;;;;5374549;26;19996;-52
2024/04/10 06:43:59;;;;;;;13.50;8.30;;;;;;;;;;5378082;26;20004;-51
2024/04/10 06:46:25;;;;;;;13.73;8.25;;;;;;;;;;5380255;26;20024;-56
2024/04/10 06:48:50;;;;;;;13.55;8.70;;;;;;;;;;5379282;26;19993;-49
2024/04/10 06:51:16;;;;;;;15.95;9.82;;;;;;;;;;5379007;26;20447;-52
2024/04/10 06:53:42;;;;;;;14.50;9.90;;;;;;;;;;5377734;26;19997;-49
2024/04/10 06:56:11;;;;;;;14.80;10.35;;;;;;;;;;5378595;26;20419;-50
2024/04/10 06:58:38;;;;;;;13.80;9.40;;;;;;;;;;5377486;26;20008;-50
2024/04/10 07:01:05;;;;;;;15.25;11.00;;;;;;;;;;5379052;26;20371;-52
2024/04/10 07:03:32;;;;;;;14.30;10.80;;;;;;;;;;5376887;26;20010;-51
2024/04/10 07:06:04;;;;;;;14.30;10.80;;;;;;;;;;5379702;26;20532;-49
2024/04/10 07:08:30;;;;;;;14.38;10.90;;;;;;;;;;5379459;26;20389;-51
2024/04/10 07:10:57;;;;;;;14.40;11.05;;;;;;;;;;5379698;26;19996;-53
2024/04/10 07:13:24;;;;;;;14.60;11.50;;;;;;;;;;5379698;26;20070;-54
2024/04/10 07:15:59;;;;;;;14.45;11.25;;;;;;;;;;5379620;26;20000;-53
2024/04/10 07:18:28;;;;;;;14.40;11.05;;;;;;;;;;5377772;26;19996;-52
2024/04/10 07:21:01;;;;;;;14.40;11.05;;;;;;;;;;5379734;26;20024;-53
2024/04/10 07:23:27;;;;;;;13.95;9.77;;;;;;;;;;5379363;26;20019;-54
2024/04/10 07:25:53;;;;;;;13.75;9.40;;;;;;;;;;5379843;26;20446;-53
2024/04/10 07:28:19;;;;;;;13.82;9.43;;;;;;;;;;5379273;26;20012;-50
2024/04/10 07:30:48;;;;;;;13.65;9.00;;;;;;;;;;5379502;26;20011;-54
2024/04/10 07:33:14;;;;;;;14.65;8.50;;;;;;;;;;5378899;26;19996;-53
2024/04/10 07:35:40;;;;;;;13.38;8.25;;;;;;;;;;5379008;26;20035;-48
2024/04/10 07:38:07;;;;;;;13.32;8.00;;;;;;;;;;5378785;26;20008;-54
2024/04/10 07:40:33;;;;;;;14.88;10.15;;;;;;;;;;5379107;26;19996;-55
2024/04/10 07:42:59;;;;;;;14.30;8.90;;;;;;;;;;5378834;26;20024;-54
2024/04/10 07:45:28;;;;;;;13.18;7.85;;;;;;;;;;5378798;26;20000;-55
2024/04/10 07:47:54;;;;;;;14.10;8.93;;;;;;;;;;5378772;26;20011;-56
2024/04/10 07:50:20;;;;;;;13.50;8.45;;;;;;;;;;5378928;26;20000;-56
2024/04/10 07:52:46;;;;;;;13.70;8.65;;;;;;;;;;5376851;26;20000;-56
2024/04/10 07:55:12;;;;;;;13.05;7.88;;;;;;;;;;5378557;26;20007;-56
2024/04/10 07:57:39;;;;;;;14.02;9.13;;;;;;;;;;5379853;26;19996;-57
2024/04/10 08:00:08;;;;;;;14.13;8.60;;;;;;;;;;5379865;26;20011;-57
2024/04/10 08:02:34;;;;;;;13.30;7.90;;;;;;;;;;5380820;26;20450;-57
2024/04/10 08:05:00;;;;;;;13.50;8.38;;;;;;;;;;5381265;26;19996;-58
2024/04/10 08:07:26;;;;;;;12.90;7.50;;;;;;;;;;5381240;26;19996;-56
2024/04/10 08:09:52;;;;;;;13.05;7.53;;;;;;;;;;5381749;26;20099;-57
2024/04/10 08:12:18;;;;;;;13.52;8.30;;;;;;;;;;5384726;26;20509;-55
2024/04/10 08:14:44;;;;;;;14.55;9.05;;;;;;;;;;5382775;26;20008;-53
2024/04/10 08:17:10;;;;;;;13.57;8.30;;;;;;;;;;5379016;26;20070;-54
2024/04/10 08:19:36;;;;;;;13.32;8.10;;;;;;;;;;5379332;26;20007;-57
2024/04/10 08:22:02;;;;;;;14.80;8.90;;;;;;;;;;5379217;26;19992;-55
2024/04/10 08:24:28;;;;;;;13.48;8.40;;;;;;;;;;5379041;26;20007;-58
2024/04/10 08:26:54;;;;;;;24.95;10.18;;;;;;;;;;5377968;26;20073;-58
2024/04/10 08:29:20;;;;;;;13.20;7.90;;;;;;;;;;5376626;26;20008;-56
2024/04/10 08:31:46;;;;;;;13.38;8.00;;;;;;;;;;5377352;26;20126;-53
2024/04/10 08:34:12;;;;;;;13.40;8.32;;;;;;;;;;5375707;26;20043;-54
2024/04/10 08:36:38;;;;;;;13.48;8.27;;;;;;;;;;5377170;26;20057;-56
2024/04/10 08:39:04;;;;;;;14.20;8.88;;;;;;;;;;5377270;26;20016;-55
2024/04/10 08:41:30;;;;;;;13.07;7.75;;;;;;;;;;5377400;26;20006;-55
2024/04/10 08:43:57;;;;;;;13.25;7.70;;;;;;;;;;5377567;26;20401;-52
2024/04/10 08:46:26;;;;;;;14.10;9.43;;;;;;;;;;5378118;26;19993;-54
2024/04/10 08:48:54;;;;;;;13.55;8.50;;;;;;;;;;5377758;26;20053;-53
2024/04/10 08:51:22;;;;;;;13.60;8.77;;;;;;;;;;5377947;26;20254;-54
2024/04/10 08:53:49;;;;;;;13.70;8.88;;;;;;;;;;5377307;26;20199;-52
2024/04/10 08:56:16;;;;;;;14.10;9.50;;;;;;;;;;5377370;26;19988;-52
2024/04/10 08:58:43;;;;;;;14.93;10.07;;;;;;;;;;5377578;26;20341;-54
2024/04/10 09:01:09;;;;;;;13.60;8.60;;;;;;;;;;5376557;26;20000;-55
2024/04/10 09:03:36;;;;;;;13.68;8.85;;;;;;;;;;5374909;26;20399;-54
2024/04/10 09:06:02;;;;;;;19.73;9.80;;;;;;;;;;5376554;26;19992;-55
2024/04/10 09:08:28;;;;;;;13.45;8.20;;;;;;;;;;5376411;26;19992;-56
2024/04/10 09:10:54;;;;;;;13.60;8.60;;;;;;;;;;5376407;26;20033;-56
2024/04/10 09:13:20;;;;;;;13.48;8.30;;;;;;;;;;5375270;26;20095;-54
2024/04/10 09:15:47;;;;;;;13.57;8.60;;;;;;;;;;5375054;26;20434;-52
2024/04/10 09:18:13;;;;;;;13.73;9.10;;;;;;;;;;5377455;26;20013;-55
2024/04/10 09:20:40;;;;;;;13.57;8.80;;;;;;;;;;5378163;26;19999;-54
2024/04/10 09:23:07;;;;;;;13.57;8.57;;;;;;;;;;5377619;26;20269;-55
2024/04/10 09:25:33;;;;;;;13.52;8.50;;;;;;;;;;5376832;26;20004;-55
2024/04/10 09:28:03;;;;;;;13.40;8.20;;;;;;;;;;5376935;26;19989;-58
2024/04/10 09:30:33;;;;;;;13.57;8.73;;;;;;;;;;5376553;26;19996;-54
2024/04/10 09:32:59;;;;;;;14.75;9.45;;;;;;;;;;5375004;26;20350;-54
2024/04/10 09:35:26;;;;;;;13.60;8.65;;;;;;;;;;5375946;26;20007;-50
2024/04/10 09:37:56;;;;;;;13.60;8.60;;;;;;;;;;5377103;26;20015;-55
2024/04/10 09:40:23;;;;;;;14.00;9.57;;;;;;;;;;5377464;26;20028;-54
2024/04/10 09:42:50;;;;;;;14.33;10.00;;;;;;;;;;5374501;26;20012;-58
2024/04/10 09:45:22;;;;;;;13.75;9.10;;;;;;;;;;5376354;26;20000;-57
2024/04/10 09:47:51;;;;;;;13.90;9.50;;;;;;;;;;5376179;26;20503;-56
2024/04/10 09:50:18;;;;;;;13.88;9.50;;;;;;;;;;5375921;26;20011;-54
2024/04/10 09:52:46;;;;;;;13.85;9.48;;;;;;;;;;5373494;26;20000;-54
2024/04/10 09:55:14;;;;;;;13.88;9.52;;;;;;;;;;5374681;26;20000;-53
2024/04/10 09:57:41;;;;;;;14.00;9.80;;;;;;;;;;5376279;26;20331;-54
2024/04/10 10:00:09;;;;;;;14.20;9.75;;;;;;;;;;5376336;26;20011;-58
2024/04/10 10:02:35;;;;;;;14.48;9.90;;;;;;;;;;5376634;26;20000;-62
2024/04/10 10:05:01;;;;;;;13.65;8.65;;;;;;;;;;5396874;26;20004;-57
2024/04/10 10:07:27;;;;;;;14.20;8.60;;;;;;;;;;5375890;26;20004;-55
2024/04/10 10:10:05;;;;;;;13.52;8.57;;;;;;;;;;5376012;26;20408;-53
2024/04/10 10:12:31;;;;;;;;;;;;;;;;;;5376416;26;20004;-51
2024/04/10 10:15:07;;;;;;;13.90;9.32;;;;;;;;;;5374859;26;19925;-56
2024/04/10 10:17:33;;;;;;;14.90;9.80;;;;;;;;;;5375792;26;20004;-54
2024/04/10 10:19:59;;;;;;;21.83;9.05;;;;;;;;;;5379346;26;20015;-54
2024/04/10 10:22:25;;;;;;;14.20;9.73;;;;;;;;;;5380161;26;20075;-56
2024/04/10 10:24:58;;;;;;;14.18;9.40;;;;;;;;;;5379684;26;20000;-56
2024/04/10 10:27:24;;;;;;;13.77;9.15;;;;;;;;;;5379279;26;20019;-55
2024/04/10 10:29:50;;;;;;;13.60;8.77;;;;;;;;;;5377668;26;20019;-56
2024/04/10 10:32:20;;;;;;;13.90;9.23;;;;;;;;;;5379163;26;20018;-53
2024/04/10 10:34:46;;;;;;;14.05;9.38;;;;;;;;;;5372377;26;20552;-56
2024/04/10 10:37:12;;;;;;;13.50;8.57;;;;;;;;;;5375167;26;20362;-51
2024/04/10 10:39:42;;;;;;;13.77;9.15;;;;;;;;;;5379809;26;19997;-54
2024/04/10 10:42:08;;;;;;;13.68;8.90;;;;;;;;;;5379456;26;19996;-56
2024/04/10 10:44:34;;;;;;;14.00;9.75;;;;;;;;;;5379681;26;20000;-52
2024/04/10 10:47:00;;;;;;;13.65;8.90;;;;;;;;;;5379631;26;20441;-52
2024/04/10 10:49:29;;;;;;;13.80;9.30;;;;;;;;;;5376632;26;20004;-52
2024/04/10 10:51:55;;;;;;;13.73;9.20;;;;;;;;;;5377405;26;19996;-54
2024/04/10 10:54:22;;;;;;;13.65;8.85;;;;;;;;;;5379509;26;19996;-54
2024/04/10 10:56:48;;;;;;;13.82;9.20;;;;;;;;;;5379511;26;20066;-54
2024/04/10 10:59:14;;;;;;;13.70;9.05;;;;;;;;;;5377242;26;20008;-51
2024/04/10 11:01:41;;;;;;;13.70;9.00;;;;;;;;;;5379552;26;20527;-53
2024/04/10 11:04:16;;;;;;;13.82;9.30;;;;;;;;;;5378926;26;20003;-56
2024/04/10 11:06:42;;;;;;;13.80;9.30;;;;;;;;;;5379561;26;20044;-54
2024/04/10 11:09:11;;;;;;;13.82;9.35;;;;;;;;;;5379519;26;20000;-51
2024/04/10 11:11:40;;;;;;;13.90;9.50;;;;;;;;;;5379225;26;20007;-57
2024/04/10 11:14:07;;;;;;;13.98;9.68;;;;;;;;;;5379903;26;20721;-50
2024/04/10 11:16:33;;;;;;;14.02;9.93;;;;;;;;;;5379615;26;20095;-55
2024/04/10 11:19:00;;;;;;;13.95;9.80;;;;;;;;;;5379931;26;20000;-56
2024/04/10 11:21:26;;;;;;;13.75;9.10;;;;;;;;;;5379296;26;20028;-53
2024/04/10 11:23:52;;;;;;;14.30;10.48;;;;;;;;;;5378359;26;20345;-56
2024/04/10 11:26:18;;;;;;;14.00;9.95;;;;;;;;;;5379051;26;20075;-55
2024/04/10 11:28:46;;;;;;;14.00;9.80;;;;;;;;;;5379163;26;20397;-52
2024/04/10 11:31:12;;;;;;;14.15;9.95;;;;;;;;;;5377380;26;20363;-54
2024/04/10 11:33:38;;;;;;;13.95;9.70;;;;;;;;;;5378166;26;20003;-52
2024/04/10 11:36:04;;;;;;;13.80;9.43;;;;;;;;;;5379328;26;20387;-52
2024/04/10 11:38:30;;;;;;;13.80;9.35;;;;;;;;;;5378637;26;20343;-52
2024/04/10 11:40:56;;;;;;;13.98;9.70;;;;;;;;;;5377242;26;20100;-50
2024/04/10 11:43:22;;;;;;;13.90;9.40;;;;;;;;;;5379581;26;20011;-54
2024/04/10 11:45:49;;;;;;;13.80;9.30;;;;;;;;;;5379337;26;19989;-53
2024/04/10 11:48:15;;;;;;;13.90;9.48;;;;;;;;;;5379006;26;20042;-52
2024/04/10 11:50:40;;;;;;;13.82;9.43;;;;;;;;;;5378827;26;20001;-55
2024/04/10 11:53:07;;;;;;;13.73;9.13;;;;;;;;;;5378067;26;20073;-52
2024/04/10 11:55:33;;;;;;;13.68;8.98;;;;;;;;;;5378414;26;20000;-51
2024/04/10 11:57:59;;;;;;;13.77;9.20;;;;;;;;;;5371013;21;20001;-58
2024/04/10 12:00:25;;;;;;;13.80;9.23;;;;;;;;;;5342370;26;20382;-55
2024/04/10 12:02:52;;;;;;;13.65;8.98;;;;;;;;;;5310893;26;19999;-56
2024/04/10 12:05:18;;;;;;;13.95;9.55;;;;;;;;;;5341635;26;20011;-57
2024/04/10 12:07:46;;;;;;;15.75;9.73;;;;;;;;;;5341619;26;20001;-57
2024/04/10 12:10:12;;;;;;;14.95;9.23;;;;;;;;;;5342253;26;20008;-55
2024/04/10 12:12:38;;;;;;;13.77;9.25;;;;;;;;;;5341910;26;19993;-58
2024/04/10 12:15:05;;;;;;;14.25;10.20;;;;;;;;;;5341917;26;19999;-58
2024/04/10 12:17:32;;;;;;;13.83;9.23;;;;;;;;;;5341996;26;20070;-58
2024/04/10 12:19:59;;;;;;;13.80;9.20;;;;;;;;;;5341463;26;20371;-58
2024/04/10 12:22:25;;;;;;;13.68;9.00;;;;;;;;;;5311179;26;20021;-54
2024/04/10 12:24:51;;;;;;;13.80;9.20;;;;;;;;;;5341379;26;19993;-56
2024/04/10 12:27:17;;;;;;;13.77;9.25;;;;;;;;;;5341438;26;20000;-56
2024/04/10 12:29:46;;;;;;;13.82;9.32;;;;;;;;;;5340983;26;20009;-53
2024/04/10 12:32:12;;;;;;;13.75;9.18;;;;;;;;;;5341649;26;20021;-55
2024/04/10 12:34:39;;;;;;;13.90;9.50;;;;;;;;;;5340984;26;20036;-58
2024/04/10 12:39:50;;;;;;;14.00;9.80;;;;;;;;;;5341884;26;20096;-57
2024/04/10 12:42:16;;;;;;;22.63;13.48;;;;;;;;;;5341588;26;20040;-58
2024/04/10 12:44:42;;;;;;;13.85;9.30;;;;;;;;;;5282766;26;20248;-56
2024/04/10 12:47:08;;;;;;;13.77;9.30;;;;;;;;;;5306110;26;20646;-56
2024/04/10 12:49:36;;;;;;;13.80;9.20;;;;;;;;;;5341414;26;20009;-56
2024/04/10 12:52:03;;;;;;;13.80;9.27;;;;;;;;;;5340898;26;20052;-57
2024/04/10 12:54:29;;;;;;;13.90;9.70;;;;;;;;;;5341122;26;19997;-54
2024/04/10 12:56:55;;;;;;;13.88;9.45;;;;;;;;;;5342125;26;20044;-55
2024/04/10 12:59:21;;;;;;;14.02;9.95;;;;;;;;;;5342010;26;20017;-54
2024/04/10 13:01:47;;;;;;;14.07;10.15;;;;;;;;;;5341736;26;20021;-64
2024/04/10 13:04:13;;;;;;;14.20;10.30;;;;;;;;;;5310317;26;20013;-55
2024/04/10 13:06:40;;;;;;;14.13;10.25;;;;;;;;;;5341312;26;20066;-61
2024/04/10 13:09:08;;;;;;;14.50;11.02;;;;;;;;;;5341590;26;20009;-58
2024/04/10 13:11:34;;;;;;;36.40;18.55;;;;;;;;;;5342681;26;20032;-56
2024/04/10 13:14:00;;;;;;;14.40;10.88;;;;;;;;;;5339304;26;20008;-54
2024/04/10 13:16:26;;;;;;;14.30;10.68;;;;;;;;;;5339760;26;20001;-55
2024/04/10 13:18:53;;;;;;;14.60;10.60;;;;;;;;;;5343037;26;20343;-58
2024/04/10 13:21:19;;;;;;;14.57;11.00;;;;;;;;;;5342655;26;20444;-58
2024/04/10 13:23:46;;;;;;;15.25;11.02;;;;;;;;;;5340152;26;20009;-58
2024/04/10 13:26:13;;;;;;;14.40;10.80;;;;;;;;;;5340051;26;20051;-55
2024/04/10 13:28:40;;;;;;;14.20;10.20;;;;;;;;;;5341041;26;20021;-56
2024/04/10 13:31:06;;;;;;;14.90;11.02;;;;;;;;;;5310367;26;20285;-55
2024/04/10 13:33:32;;;;;;;14.20;10.30;;;;;;;;;;5340475;26;20015;-56
2024/04/10 13:36:11;;;;;;;14.15;10.35;;;;;;;;;;5341960;26;20467;-58
2024/04/10 13:38:37;;;;;;;14.07;10.15;;;;;;;;;;5341594;26;20004;-57
2024/04/10 13:41:04;;;;;;;18.98;11.65;;;;;;;;;;5341185;26;20438;-57
2024/04/10 13:43:30;;;;;;;14.50;10.73;;;;;;;;;;5340704;26;20347;-60
2024/04/10 13:45:56;;;;;;;14.27;10.48;;;;;;;;;;5340701;26;19997;-55
2024/04/10 13:48:22;;;;;;;14.23;10.50;;;;;;;;;;5338549;26;20012;-56
2024/04/10 13:50:49;;;;;;;14.15;10.25;;;;;;;;;;5307854;26;19997;-54
2024/04/10 13:53:15;;;;;;;14.38;10.88;;;;;;;;;;5307733;26;19993;-55
2024/04/10 13:55:44;;;;;;;15.27;10.95;;;;;;;;;;5309698;26;20005;-57
2024/04/10 13:58:10;;;;;;;14.35;10.60;;;;;;;;;;5307472;26;20001;-56
2024/04/10 14:00:36;;;;;;;14.70;10.77;;;;;;;;;;5339521;26;20505;-53
2024/04/10 14:03:05;;;;;;;14.35;10.75;;;;;;;;;;5339225;26;20001;-56
2024/04/10 14:05:31;;;;;;;14.43;10.88;;;;;;;;;;5340508;26;19989;-58
2024/04/10 14:07:57;;;;;;;16.08;10.70;;;;;;;;;;5339530;26;20172;-57
2024/04/10 14:10:23;;;;;;;14.10;10.07;;;;;;;;;;5341086;26;20622;-53
2024/04/10 14:12:49;;;;;;;14.10;10.13;;;;;;;;;;5309740;26;20433;-58
2024/04/10 14:15:15;;;;;;;14.10;10.15;;;;;;;;;;5339473;26;20107;-51
2024/04/10 14:17:42;;;;;;;14.48;10.60;;;;;;;;;;5338204;26;20031;-57
2024/04/10 14:20:10;;;;;;;14.07;10.10;;;;;;;;;;5338696;26;20394;-56
2024/04/10 14:22:36;;;;;;;14.00;9.80;;;;;;;;;;5310074;26;20132;-54
2024/04/10 14:25:02;;;;;;;14.77;10.98;;;;;;;;;;5339642;26;20003;-57
2024/04/10 14:27:29;;;;;;;14.15;10.38;;;;;;;;;;5340027;26;19993;-54
2024/04/10 14:29:55;;;;;;;14.25;10.50;;;;;;;;;;5339813;26;20004;-57